createdAt,value
2023-01-08T00:31:53.591Z,101127.01
2023-01-08T00:34:21.413Z,101117.46
2023-01-08T00:36:49.172Z,101125.41
2023-01-08T00:39:16.972Z,101113.53
2023-01-08T00:41:46.694Z,101113.53
2023-01-08T00:44:14.541Z,101115.49
2023-01-08T00:46:42.307Z,101104.22
2023-01-08T00:49:10.082Z,101099.12
2023-01-08T00:51:37.915Z,101099.70
2023-01-08T00:54:06.150Z,101095.75
2023-01-08T00:56:34.032Z,101094.66
2023-01-08T00:59:01.793Z,101084.50
2023-01-08T01:01:29.787Z,101080.55
2023-01-08T01:03:57.934Z,101072.66
2023-01-08T01:06:28.337Z,101063.97
2023-01-08T01:08:56.261Z,101067.07
2023-01-08T01:11:25.969Z,101059.52
2023-01-08T01:13:53.956Z,101045.76
2023-01-08T01:16:21.763Z,101054.59
2023-01-08T01:18:49.699Z,101054.95
2023-01-08T01:21:23.016Z,101064.03
2023-01-08T01:23:51.138Z,101068.28
2023-01-08T01:26:19.567Z,101060.70
2023-01-08T01:28:51.498Z,101074.23
2023-01-08T01:31:19.570Z,101078.22
2023-01-08T01:33:47.601Z,101072.56
2023-01-08T01:36:16.332Z,101077.96
2023-01-08T01:38:48.155Z,101077.96
2023-01-08T01:41:32.817Z,101071.81
2023-01-08T01:44:02.062Z,101078.58
2023-01-08T01:46:35.527Z,101071.81
2023-01-08T01:49:07.559Z,101067.89
2023-01-08T01:51:35.981Z,101070.73
2023-01-08T01:54:04.489Z,101065.34
2023-01-08T01:56:32.693Z,101065.93
2023-01-08T01:59:00.662Z,101073.80
2023-01-08T02:01:29.681Z,101072.11
2023-01-08T02:03:57.602Z,101071.55
2023-01-08T02:06:38.750Z,101073.55
2023-01-08T02:09:53.182Z,101075.51
2023-01-08T02:13:00.490Z,101080.84
2023-01-08T02:15:49.780Z,101077.47
2023-01-08T02:18:22.067Z,101084.23
2023-01-08T02:21:11.330Z,101074.95
2023-01-08T02:24:11.603Z,101064.52
2023-01-08T02:26:39.450Z,101062.01
2023-01-08T02:29:09.996Z,101050.98
2023-01-08T02:31:40.103Z,101057.72
2023-01-08T02:34:08.172Z,101050.98
2023-01-08T02:36:44.636Z,101044.22
2023-01-08T02:39:50.098Z,101024.21
2023-01-08T02:42:23.245Z,101022.54
2023-01-08T02:45:28.953Z,101021.43
2023-01-08T02:48:29.019Z,100984.84
2023-01-08T02:51:23.099Z,100960.35
2023-01-08T02:53:53.048Z,100965.13
2023-01-08T02:56:23.572Z,100958.39
2023-01-08T02:58:51.886Z,100951.95
2023-01-08T03:01:20.171Z,100949.63
2023-01-08T03:03:50.383Z,100941.75
2023-01-08T03:06:19.859Z,100950.97
2023-01-08T03:08:49.075Z,100943.05
2023-01-08T03:11:18.897Z,100946.09
2023-01-08T03:13:47.584Z,100940.73
2023-01-08T03:16:20.617Z,100951.69
2023-01-08T03:18:51.041Z,100953.65
2023-01-08T03:21:19.339Z,100964.93
2023-01-08T03:23:47.185Z,100957.54
2023-01-08T03:26:15.788Z,100944.27
2023-01-08T03:28:46.538Z,100953.55
2023-01-08T03:31:16.247Z,100934.09
2023-01-08T03:33:44.823Z,100931.55
2023-01-08T03:36:14.829Z,100937.46
2023-01-08T03:38:46.364Z,100938.97
2023-01-08T03:41:16.178Z,100940.47
2023-01-08T03:43:44.007Z,100943.80
2023-01-08T03:46:17.677Z,100934.78
2023-01-08T03:48:45.637Z,100927.13
2023-01-08T03:51:13.414Z,100921.15
2023-01-08T03:53:43.946Z,100917.75
2023-01-08T03:56:11.811Z,100921.70
2023-01-08T03:58:39.754Z,100923.93
2023-01-08T04:01:07.676Z,100918.86
2023-01-08T04:03:35.513Z,100912.65
2023-01-08T04:06:03.373Z,100903.07
2023-01-08T04:08:31.193Z,100897.12
2023-01-08T04:10:59.031Z,100900.29
2023-01-08T04:13:26.882Z,100905.98
2023-01-08T04:15:54.776Z,100908.53
2023-01-08T04:18:22.606Z,100906.01
2023-01-08T04:20:50.481Z,100893.55
2023-01-08T04:23:18.450Z,100885.61
2023-01-08T04:25:46.346Z,100901.11
2023-01-08T04:28:14.293Z,100898.20
2023-01-08T04:30:42.179Z,100905.03
2023-01-08T04:33:10.136Z,100899.41
2023-01-08T04:35:37.908Z,100904.54
2023-01-08T04:38:06.006Z,100911.34
2023-01-08T04:40:34.600Z,100922.88
2023-01-08T04:43:02.405Z,100924.87
2023-01-08T04:45:30.315Z,100920.66
2023-01-08T04:47:58.773Z,100923.18
2023-01-08T04:50:27.131Z,100915.82
2023-01-08T04:52:55.011Z,100908.43
2023-01-08T04:55:22.808Z,100916.64
2023-01-08T04:57:50.657Z,100925.37
2023-01-08T05:00:18.688Z,100924.78
2023-01-08T05:02:46.766Z,100930.96
2023-01-08T05:05:14.861Z,100928.15
2023-01-08T05:07:42.780Z,100930.70
2023-01-08T05:10:11.612Z,100936.32
2023-01-08T05:12:39.465Z,100931.77
2023-01-08T05:15:07.649Z,100932.33
2023-01-08T05:17:35.515Z,100932.85
2023-01-08T05:20:03.365Z,100927.75
2023-01-08T05:22:31.124Z,100925.20
2023-01-08T05:24:58.954Z,100929.42
2023-01-08T05:27:26.847Z,100929.09
2023-01-08T05:29:54.663Z,100929.36
2023-01-08T05:32:22.500Z,100932.73
2023-01-08T05:34:50.386Z,100923.08
2023-01-08T05:37:18.174Z,100923.02
2023-01-08T05:39:46.031Z,100931.74
2023-01-08T05:42:13.840Z,100922.13
2023-01-08T05:44:47.819Z,100926.64
2023-01-08T05:47:15.728Z,100932.33
2023-01-08T05:49:43.547Z,100939.66
2023-01-08T05:52:11.417Z,100939.91
2023-01-08T05:54:39.211Z,100937.10
2023-01-08T05:57:07.207Z,100945.02
2023-01-08T05:59:35.070Z,100946.39
2023-01-08T06:02:02.891Z,100940.51
2023-01-08T06:04:30.866Z,100941.03
2023-01-08T06:06:58.799Z,100941.62
2023-01-08T06:09:26.752Z,100950.94
2023-01-08T06:11:54.958Z,100940.21
2023-01-08T06:14:22.891Z,100934.00
2023-01-08T06:16:50.721Z,100937.95
2023-01-08T06:19:20.154Z,100939.03
2023-01-08T06:21:47.998Z,100944.10
2023-01-08T06:24:16.068Z,100942.37
2023-01-08T06:26:44.002Z,100947.47
2023-01-08T06:29:11.817Z,100954.80
2023-01-08T06:31:39.820Z,100954.80
2023-01-08T06:34:07.744Z,100956.79
2023-01-08T06:36:35.650Z,100956.16
2023-01-08T06:39:03.458Z,100950.25
2023-01-08T06:41:31.206Z,100950.51
2023-01-08T06:43:59.040Z,100947.11
2023-01-08T06:46:27.126Z,100934.72
2023-01-08T06:48:55.020Z,100934.36
2023-01-08T06:51:25.399Z,100931.19
2023-01-08T06:53:53.171Z,100929.42
2023-01-08T06:56:21.094Z,100934.81
2023-01-08T06:58:49.014Z,100929.75
2023-01-08T07:01:17.682Z,100922.33
2023-01-08T07:03:45.740Z,100914.64
2023-01-08T07:06:17.963Z,100915.49
2023-01-08T07:08:47.231Z,100906.41
2023-01-08T07:11:15.201Z,100909.18
2023-01-08T07:13:43.159Z,100911.70
2023-01-08T07:16:12.274Z,100898.13
2023-01-08T07:18:40.233Z,100889.04
2023-01-08T07:21:08.536Z,100894.37
2023-01-08T07:23:36.659Z,100900.29
2023-01-08T07:26:05.251Z,100896.56
2023-01-08T07:28:33.341Z,100898.75
2023-01-08T07:31:05.309Z,100908.07
2023-01-08T07:33:33.283Z,100902.97
2023-01-08T07:36:01.160Z,100904.87
2023-01-08T07:38:29.064Z,100908.23
2023-01-08T07:40:58.846Z,100896.04
2023-01-08T07:43:27.652Z,100903.92
2023-01-08T07:45:55.494Z,100892.02
2023-01-08T07:48:23.283Z,100893.36
2023-01-08T07:50:51.146Z,100915.13
2023-01-08T07:53:20.064Z,100939.20
2023-01-08T07:55:49.149Z,100945.80
2023-01-08T07:58:17.008Z,100942.70
2023-01-08T08:00:45.061Z,100944.69
2023-01-08T08:03:13.089Z,100937.27
2023-01-08T08:05:41.123Z,100923.14
2023-01-08T08:08:10.643Z,100911.86
2023-01-08T08:10:39.180Z,100897.74
2023-01-08T08:13:07.394Z,100906.77
2023-01-08T08:15:35.682Z,100897.34
2023-01-08T08:18:03.629Z,100892.77
2023-01-08T08:20:31.567Z,100887.63
2023-01-08T08:23:17.683Z,100885.05
2023-01-08T08:25:45.626Z,100903.72
2023-01-08T08:28:13.695Z,100942.08
2023-01-08T08:30:42.788Z,100955.32
2023-01-08T08:33:11.088Z,100962.67
2023-01-08T08:35:39.674Z,100968.23
2023-01-08T08:38:08.029Z,100954.44
2023-01-08T08:40:35.788Z,100956.10
2023-01-08T08:43:04.800Z,100953.81
2023-01-08T08:45:32.665Z,100966.79
2023-01-08T08:48:00.562Z,100955.48
2023-01-08T08:50:28.384Z,100960.02
2023-01-08T08:53:01.742Z,100952.27
2023-01-08T08:55:30.017Z,100929.06
2023-01-08T08:58:04.592Z,100929.59
2023-01-08T09:00:32.628Z,100910.66
2023-01-08T09:05:49.307Z,100926.38
2023-01-08T09:08:17.500Z,100922.66
2023-01-08T09:10:45.447Z,100923.41
2023-01-08T09:13:13.474Z,100946.55
2023-01-08T09:15:41.403Z,100941.75
2023-01-08T09:18:09.172Z,100949.37
2023-01-08T09:20:37.077Z,100954.76
2023-01-08T09:23:05.074Z,100971.93
2023-01-08T09:25:33.030Z,100968.79
2023-01-08T09:28:02.224Z,100968.72
2023-01-08T09:30:30.162Z,100960.77
2023-01-08T09:33:01.439Z,100957.02
2023-01-08T09:35:30.403Z,100959.96
2023-01-08T09:37:58.517Z,100958.45
2023-01-08T09:41:06.760Z,100952.80
2023-01-08T09:43:36.248Z,100951.69
2023-01-08T09:46:05.666Z,100951.88
2023-01-08T09:48:35.957Z,100939.63
2023-01-08T09:51:03.970Z,100938.19
2023-01-08T09:53:32.145Z,100937.27
2023-01-08T09:56:10.018Z,100932.98
2023-01-08T09:58:50.089Z,100933.21
2023-01-08T10:01:26.048Z,100941.39
2023-01-08T10:04:15.971Z,100943.28
2023-01-08T10:07:22.506Z,100927.36
2023-01-08T10:09:53.675Z,100930.40
2023-01-08T10:12:30.037Z,100924.45
2023-01-08T10:15:00.091Z,100916.18
2023-01-08T10:17:31.945Z,100918.37
2023-01-08T10:19:59.997Z,100923.63
2023-01-08T10:22:31.560Z,100911.47
2023-01-08T10:25:09.916Z,100900.98
2023-01-08T10:27:54.722Z,100905.26
2023-01-08T10:30:24.766Z,100906.63
2023-01-08T10:32:56.857Z,100906.47
2023-01-08T10:35:38.166Z,100899.34
2023-01-08T10:38:06.235Z,100898.26
2023-01-08T10:40:46.957Z,100880.64
2023-01-08T10:43:27.562Z,100876.20
2023-01-08T10:46:09.172Z,100861.48
2023-01-08T10:48:39.565Z,100860.37
2023-01-08T10:51:21.463Z,100863.93
2023-01-08T10:53:49.602Z,100854.19
2023-01-08T10:56:25.456Z,100851.73
2023-01-08T10:58:53.844Z,100861.51
2023-01-08T11:01:31.825Z,100854.52
2023-01-08T11:04:04.568Z,100840.26
2023-01-08T11:06:38.678Z,100836.59
2023-01-08T11:09:20.523Z,100829.77
2023-01-08T11:11:48.368Z,100822.08
2023-01-08T11:14:27.877Z,100815.24
2023-01-08T11:16:56.017Z,100801.32
2023-01-08T11:19:33.759Z,100794.48
2023-01-08T11:22:02.320Z,100795.30
2023-01-08T11:24:32.250Z,100786.18
2023-01-08T11:27:28.075Z,100785.52
2023-01-08T11:30:08.142Z,100775.88
2023-01-08T11:32:57.836Z,100766.43
2023-01-08T11:35:31.209Z,100752.44
2023-01-08T11:38:03.111Z,100748.97
2023-01-08T11:40:53.258Z,100744.66
2023-01-08T11:43:23.994Z,100748.55
2023-01-08T11:46:05.025Z,100747.07
2023-01-08T11:49:10.381Z,100739.59
2023-01-08T11:51:53.368Z,100723.92
2023-01-08T11:55:15.956Z,100718.79
2023-01-08T11:57:58.673Z,100708.66
2023-01-08T12:00:40.130Z,100698.81
2023-01-08T12:03:27.735Z,100693.81
2023-01-08T12:06:09.417Z,100678.67
2023-01-08T12:08:52.342Z,100677.37
2023-01-08T12:11:34.172Z,100675.73
2023-01-08T12:14:24.804Z,100665.76
2023-01-08T12:17:08.388Z,100668.77
2023-01-08T12:19:48.238Z,100649.54
2023-01-08T12:22:40.188Z,100639.90
2023-01-08T12:25:22.853Z,100637.90
2023-01-08T12:28:15.869Z,100625.54
2023-01-08T12:30:57.775Z,100612.66
2023-01-08T12:33:38.962Z,100626.42
2023-01-08T12:36:19.818Z,100615.41
2023-01-08T12:38:54.248Z,100619.07
2023-01-08T12:41:22.305Z,100608.41
2023-01-08T12:44:02.696Z,100621.78
2023-01-08T12:46:35.397Z,100606.58
2023-01-08T12:49:03.536Z,100616.59
2023-01-08T12:52:11.373Z,100623.61
2023-01-08T12:54:55.126Z,100618.77
2023-01-08T12:57:53.048Z,100616.13
2023-01-08T13:00:28.682Z,100631.98
2023-01-08T13:03:00.304Z,100622.80
2023-01-08T13:05:34.470Z,100633.48
2023-01-08T13:08:10.214Z,100621.29
2023-01-08T13:10:51.886Z,100613.61
2023-01-08T13:13:28.715Z,100598.77
2023-01-08T13:16:21.357Z,100599.42
2023-01-08T13:18:53.087Z,100599.42
2023-01-08T13:21:28.307Z,100597.42
2023-01-08T13:24:21.210Z,100583.76
2023-01-08T13:26:49.197Z,100582.58
2023-01-08T13:29:43.945Z,100594.25
2023-01-08T13:32:43.589Z,100588.73
2023-01-08T13:35:17.492Z,100586.41
2023-01-08T13:37:55.130Z,100590.91
2023-01-08T13:40:44.823Z,100588.07
2023-01-08T13:43:19.576Z,100585.39
2023-01-08T13:46:17.273Z,100591.73
2023-01-08T13:49:07.551Z,100576.20
2023-01-08T13:51:41.731Z,100566.55
2023-01-08T13:54:18.340Z,100559.17
2023-01-08T13:56:47.874Z,100558.68
2023-01-08T13:59:32.765Z,100546.52
2023-01-08T14:02:02.634Z,100544.49
2023-01-08T14:04:30.572Z,100536.31
2023-01-08T14:07:16.908Z,100533.99
2023-01-08T14:09:44.930Z,100530.79
2023-01-08T14:12:15.622Z,100522.62
2023-01-08T14:14:46.550Z,100531.97
2023-01-08T14:17:18.600Z,100528.01
2023-01-08T14:19:46.526Z,100532.85
2023-01-08T14:22:32.258Z,100529.02
2023-01-08T14:25:02.595Z,100529.32
2023-01-08T14:27:31.501Z,100518.79
2023-01-08T14:29:59.642Z,100520.81
2023-01-08T14:32:31.735Z,100511.79
2023-01-08T14:35:01.747Z,100527.16
2023-01-08T14:37:29.956Z,100526.48
2023-01-08T14:39:58.002Z,100528.30
2023-01-08T14:42:48.242Z,100524.64
2023-01-08T14:45:29.976Z,100515.13
2023-01-08T14:48:02.106Z,100516.30
2023-01-08T14:50:31.554Z,100513.79
2023-01-08T14:53:05.312Z,100510.95
2023-01-08T14:55:33.870Z,100500.61
2023-01-08T14:58:01.746Z,100487.73
2023-01-08T15:00:31.163Z,100484.91
2023-01-08T15:02:59.303Z,100483.58
2023-01-08T15:05:31.166Z,100483.74
2023-01-08T15:08:03.884Z,100482.07
2023-01-08T15:10:38.923Z,100468.21
2023-01-08T15:13:09.740Z,100475.23
2023-01-08T15:16:10.245Z,100470.70
2023-01-08T15:18:44.236Z,100464.55
2023-01-08T15:21:12.253Z,100467.39
2023-01-08T15:23:44.169Z,100460.23
2023-01-08T15:26:13.791Z,100453.01
2023-01-08T15:28:52.876Z,100444.83
2023-01-08T15:31:33.970Z,100435.80
2023-01-08T15:34:01.950Z,100427.66
2023-01-08T15:36:29.874Z,100425.64
2023-01-08T15:38:58.050Z,100415.96
2023-01-08T15:41:44.644Z,100408.24
2023-01-08T15:44:15.614Z,100409.45
2023-01-08T15:46:43.963Z,100398.44
2023-01-08T15:49:11.860Z,100394.74
2023-01-08T15:51:43.143Z,100398.23
2023-01-08T15:54:14.321Z,100390.91
2023-01-08T15:56:42.589Z,100397.26
2023-01-08T15:59:10.671Z,100375.74
2023-01-08T16:01:38.869Z,100363.19
2023-01-08T16:04:07.016Z,100368.87
2023-01-08T16:06:35.212Z,100366.20
2023-01-08T16:09:03.273Z,100357.53
2023-01-08T16:11:31.339Z,100355.51
2023-01-08T16:13:59.939Z,100344.52
2023-01-08T16:16:27.942Z,100358.19
2023-01-08T16:18:55.898Z,100352.53
2023-01-08T16:21:23.761Z,100360.54
2023-01-08T16:23:51.749Z,100349.52
2023-01-08T16:26:19.908Z,100352.01
2023-01-08T16:28:47.899Z,100344.68
2023-01-08T16:31:15.902Z,100330.85
2023-01-08T16:33:43.847Z,100344.16
2023-01-08T16:36:12.000Z,100340.04
2023-01-08T16:38:39.961Z,100345.37
2023-01-08T16:41:07.899Z,100346.19
2023-01-08T16:43:40.661Z,100360.21
2023-01-08T16:46:15.363Z,100355.21
2023-01-08T16:48:44.370Z,100353.70
2023-01-08T16:51:12.694Z,100362.53
2023-01-08T16:53:45.654Z,100346.84
2023-01-08T16:56:13.533Z,100356.84
2023-01-08T16:58:41.450Z,100345.20
2023-01-08T17:01:11.001Z,100340.66
2023-01-08T17:03:39.177Z,100348.34
2023-01-08T17:06:11.601Z,100339.52
2023-01-08T17:08:41.264Z,100326.83
2023-01-08T17:11:19.420Z,100324.51
2023-01-08T17:13:47.675Z,100316.14
2023-01-08T17:16:18.894Z,100321.83
2023-01-08T17:18:46.879Z,100319.15
2023-01-08T17:21:15.410Z,100324.31
2023-01-08T17:23:43.304Z,100315.32
2023-01-08T17:26:14.093Z,100292.63
2023-01-08T17:28:42.072Z,100296.95
2023-01-08T17:31:15.267Z,100284.78
2023-01-08T17:33:43.280Z,100288.09
2023-01-08T17:36:14.948Z,100267.75
2023-01-08T17:38:44.174Z,100259.41
2023-01-08T17:41:32.216Z,100257.74
2023-01-08T17:44:00.811Z,100257.25
2023-01-08T17:46:29.170Z,100247.54
2023-01-08T17:48:57.129Z,100249.57
2023-01-08T17:51:25.146Z,100239.56
2023-01-08T17:53:52.989Z,100251.73
2023-01-08T17:56:20.923Z,100249.41
2023-01-08T17:58:51.244Z,100239.40
2023-01-08T18:01:20.440Z,100240.55
2023-01-08T18:03:48.662Z,100239.70
2023-01-08T18:06:16.552Z,100245.38
2023-01-08T18:08:44.497Z,100241.39
2023-01-08T18:11:12.507Z,100242.54
2023-01-08T18:13:40.384Z,100226.84
2023-01-08T18:16:13.575Z,100218.34
2023-01-08T18:18:41.736Z,100195.33
2023-01-08T18:21:09.992Z,100198.98
2023-01-08T18:23:37.908Z,100195.78
2023-01-08T18:26:12.139Z,100176.75
2023-01-08T18:28:40.482Z,100170.25
2023-01-08T18:31:09.388Z,100174.59
2023-01-08T18:33:37.834Z,100165.60
2023-01-08T18:36:07.740Z,100169.79
2023-01-08T18:38:37.853Z,100176.13
2023-01-08T18:41:06.492Z,100170.97
2023-01-08T18:43:36.906Z,100181.49
2023-01-08T18:46:08.599Z,100170.48
2023-01-08T18:48:36.831Z,100177.96
2023-01-08T18:51:06.885Z,100168.77
2023-01-08T18:53:35.088Z,100159.59
2023-01-08T18:56:03.214Z,100162.11
2023-01-08T18:58:31.244Z,100166.45
2023-01-08T19:01:07.058Z,100148.93
2023-01-08T19:03:35.541Z,100139.25
2023-01-08T19:06:03.497Z,100152.43
2023-01-08T19:08:31.611Z,100139.94
2023-01-08T19:11:04.028Z,100128.07
2023-01-08T19:13:31.915Z,100127.25
2023-01-08T19:16:02.537Z,100139.09
2023-01-08T19:18:30.494Z,100138.76
2023-01-08T19:21:00.176Z,100143.60
2023-01-08T19:23:28.383Z,100125.55
2023-01-08T19:25:56.557Z,100118.06
2023-01-08T19:28:24.430Z,100138.40
2023-01-08T19:30:59.094Z,100145.23
2023-01-08T19:33:27.209Z,100153.77
2023-01-08T19:35:55.484Z,100161.78
2023-01-08T19:38:24.136Z,100141.24
2023-01-08T19:40:52.032Z,100134.05
2023-01-08T19:43:38.377Z,100147.39
2023-01-08T19:46:07.548Z,100129.87
2023-01-08T19:48:35.551Z,100123.88
2023-01-08T19:51:14.512Z,100131.21
2023-01-08T19:53:42.409Z,100124.02
2023-01-08T19:56:12.107Z,100124.38
2023-01-08T19:58:40.054Z,100121.86
2023-01-08T20:01:15.974Z,100119.54
2023-01-08T20:03:43.966Z,100103.19
2023-01-08T20:06:14.180Z,100095.99
2023-01-08T20:08:42.071Z,100103.35
2023-01-08T20:11:13.869Z,100106.03
2023-01-08T20:13:41.898Z,100104.69
2023-01-08T20:16:11.073Z,100109.56
2023-01-08T20:18:39.427Z,100117.70
2023-01-08T20:21:11.669Z,100104.56
2023-01-08T20:23:40.141Z,100091.87
2023-01-08T20:26:10.222Z,100090.70
2023-01-08T20:28:39.170Z,100096.71
2023-01-08T20:31:11.838Z,100091.52
2023-01-08T20:33:39.869Z,100079.02
2023-01-08T20:36:11.311Z,100077.03
2023-01-08T20:38:39.159Z,100080.01
2023-01-08T20:41:08.034Z,100073.14
2023-01-08T20:43:36.441Z,100067.45
2023-01-08T20:46:04.571Z,100052.12
2023-01-08T20:48:36.953Z,100047.60
2023-01-08T20:51:11.250Z,100045.61
2023-01-08T20:53:39.489Z,100028.61
2023-01-08T20:56:12.453Z,100019.91
2023-01-08T20:58:42.497Z,100004.09
2023-01-08T21:01:11.672Z,100006.60
2023-01-08T21:03:40.352Z,100021.09
2023-01-08T21:06:13.474Z,100023.60
2023-01-08T21:08:42.162Z,100022.76
2023-01-08T21:11:10.607Z,100037.44
2023-01-08T21:13:38.783Z,100039.79
2023-01-08T21:16:13.119Z,100040.97
2023-01-08T21:18:49.865Z,100031.48
2023-01-08T21:21:19.469Z,100029.66
2023-01-08T21:23:47.851Z,100038.16
2023-01-08T21:26:16.144Z,100041.00
2023-01-08T21:28:44.460Z,100030.83
2023-01-08T21:31:14.337Z,100034.16
2023-01-08T21:33:42.492Z,100031.35
2023-01-08T21:36:12.274Z,100022.46
2023-01-08T21:38:40.476Z,100032.63
2023-01-08T21:41:10.283Z,100036.32
2023-01-08T21:43:56.823Z,100029.33
2023-01-08T21:46:27.934Z,100012.65
2023-01-08T21:48:55.871Z,100033.80
2023-01-08T21:51:42.120Z,100026.65
2023-01-08T21:54:09.992Z,100023.44
2023-01-08T21:56:37.848Z,100031.62
2023-01-08T21:59:05.820Z,100043.81
2023-01-08T22:01:33.761Z,100030.44
2023-01-08T22:04:22.345Z,100008.11
2023-01-08T22:06:50.245Z,99997.09
2023-01-08T22:09:18.221Z,100000.75
2023-01-08T22:11:46.169Z,100007.42
2023-01-08T22:14:14.094Z,100000.23
2023-01-08T22:16:42.007Z,100006.73
2023-01-08T22:19:11.446Z,100007.19
2023-01-08T22:21:40.130Z,100000.36
2023-01-08T22:24:08.207Z,100012.55
2023-01-08T22:26:36.813Z,100011.70
2023-01-08T22:29:05.685Z,100009.35
2023-01-08T22:31:34.517Z,100013.37
2023-01-08T22:34:02.643Z,100012.55
2023-01-08T22:36:33.155Z,100003.40
2023-01-08T22:39:01.021Z,100002.71
2023-01-08T22:41:28.971Z,100005.36
2023-01-08T22:43:57.740Z,100004.18
2023-01-08T22:46:25.825Z,100006.30
2023-01-08T22:48:53.657Z,100015.34
2023-01-08T22:51:27.274Z,100006.30
2023-01-08T22:53:56.216Z,100011.51
2023-01-08T22:56:24.149Z,100006.18
2023-01-08T22:58:52.194Z,100010.20
2023-01-08T23:01:25.753Z,100015.01
2023-01-08T23:03:54.979Z,100012.55
2023-01-08T23:06:23.370Z,100013.37
2023-01-08T23:08:51.271Z,100017.85
2023-01-08T23:11:20.366Z,100008.53
2023-01-08T23:13:48.248Z,100003.34
2023-01-08T23:16:17.436Z,99988.78
2023-01-08T23:18:45.712Z,99974.13
2023-01-08T23:21:16.031Z,99978.13
2023-01-08T23:23:43.955Z,99965.14
2023-01-08T23:26:18.862Z,99959.95
2023-01-08T23:28:49.950Z,99957.95
2023-01-08T23:31:19.937Z,99948.24
2023-01-08T23:33:47.875Z,99943.89
2023-01-08T23:36:19.389Z,99950.89
2023-01-08T23:38:47.795Z,99944.84
2023-01-08T23:41:15.823Z,99946.87
2023-01-08T23:43:44.629Z,99944.02
2023-01-08T23:46:12.536Z,99936.01
2023-01-08T23:48:40.458Z,99943.70
2023-01-08T23:51:08.475Z,99936.34
2023-01-08T23:53:36.378Z,99931.53
2023-01-08T23:56:04.244Z,99940.85
2023-01-08T23:58:32.125Z,99951.84
